createdAt,value
2023-05-09T00:00:48.337Z,3.03
2023-05-09T00:03:15.135Z,3.28
2023-05-09T00:05:42.072Z,3.15
2023-05-09T00:08:08.966Z,3.40
2023-05-09T00:10:37.006Z,3.28
2023-05-09T00:13:03.999Z,3.22
2023-05-09T00:15:31.966Z,3.40
2023-05-09T00:17:58.800Z,3.13
2023-05-09T00:20:25.641Z,3.55
2023-05-09T00:22:52.343Z,3.55
2023-05-09T00:25:18.997Z,3.45
2023-05-09T00:27:47.039Z,3.22
2023-05-09T00:30:13.881Z,3.30
2023-05-09T00:32:41.474Z,3.03
2023-05-09T00:35:08.897Z,3.50
2023-05-09T00:37:35.655Z,5.40
2023-05-09T00:40:03.109Z,4.82
2023-05-09T00:42:29.775Z,3.70
2023-05-09T00:44:57.864Z,2.75
2023-05-09T00:47:24.721Z,3.30
2023-05-09T00:49:51.524Z,3.13
2023-05-09T00:52:23.057Z,3.33
2023-05-09T00:54:51.102Z,3.15
2023-05-09T00:57:17.762Z,2.90
2023-05-09T00:59:44.681Z,2.72
2023-05-09T01:02:12.776Z,3.50
2023-05-09T01:04:40.774Z,3.10
2023-05-09T01:07:13.785Z,3.38
2023-05-09T01:09:46.963Z,3.10
2023-05-09T01:12:22.545Z,3.28
2023-05-09T01:14:58.834Z,3.78
2023-05-09T01:17:35.068Z,5.10
2023-05-09T01:20:12.990Z,4.70
2023-05-09T01:22:45.495Z,4.43
2023-05-09T01:25:47.646Z,3.35
2023-05-09T01:28:26.174Z,3.05
2023-05-09T01:30:55.615Z,3.40
2023-05-09T01:35:59.255Z,3.00
2023-05-09T01:38:26.161Z,3.75
2023-05-09T01:40:54.626Z,9.65
2023-05-09T01:43:24.172Z,4.13
2023-05-09T01:48:21.678Z,3.05
2023-05-09T01:50:49.125Z,3.15
2023-05-09T01:53:17.473Z,8.75
2023-05-09T01:55:45.920Z,5.40
2023-05-09T01:58:13.573Z,8.10
2023-05-09T02:00:41.079Z,3.25
2023-05-09T02:03:08.875Z,3.22
2023-05-09T02:05:37.636Z,3.38
2023-05-09T02:08:04.738Z,3.28
2023-05-09T02:10:32.638Z,10.32
2023-05-09T02:12:59.322Z,3.67
2023-05-09T02:15:26.555Z,4.47
2023-05-09T02:17:53.296Z,3.85
2023-05-09T02:20:20.112Z,9.43
2023-05-09T02:22:48.149Z,9.27
2023-05-09T02:25:15.752Z,9.02
2023-05-09T02:27:45.383Z,4.07
2023-05-09T02:30:15.683Z,10.10
2023-05-09T02:32:45.349Z,9.73
2023-05-09T02:35:15.007Z,8.88
2023-05-09T02:37:42.063Z,8.32
2023-05-09T02:40:12.206Z,8.77
2023-05-09T02:42:38.880Z,9.43
2023-05-09T02:45:07.517Z,8.65
2023-05-09T02:47:34.087Z,9.50
2023-05-09T02:50:00.659Z,12.25
2023-05-09T02:52:27.428Z,12.07
2023-05-09T02:54:54.007Z,11.63
2023-05-09T02:57:21.931Z,11.15
2023-05-09T02:59:48.645Z,5.13
2023-05-09T03:02:15.698Z,10.98
2023-05-09T03:04:42.394Z,4.95
2023-05-09T03:07:09.029Z,4.20
2023-05-09T03:09:35.712Z,4.15
2023-05-09T03:12:03.767Z,6.90
2023-05-09T03:14:31.821Z,4.32
2023-05-09T03:16:58.487Z,3.78
2023-05-09T03:19:25.206Z,3.70
2023-05-09T03:21:52.027Z,3.97
2023-05-09T03:24:18.630Z,4.05
2023-05-09T03:26:45.284Z,3.80
2023-05-09T03:29:11.916Z,3.58
2023-05-09T03:31:40.025Z,4.32
2023-05-09T03:34:06.797Z,4.20
2023-05-09T03:36:33.479Z,3.88
2023-05-09T03:39:00.142Z,4.97
2023-05-09T03:41:26.816Z,9.45
2023-05-09T03:43:53.479Z,9.27
2023-05-09T03:46:20.126Z,9.10
2023-05-09T03:48:48.156Z,4.95
2023-05-09T03:51:14.839Z,8.40
2023-05-09T03:53:41.466Z,8.05
2023-05-09T03:56:08.146Z,8.10
2023-05-09T03:58:34.782Z,8.73
2023-05-09T04:01:01.441Z,4.53
2023-05-09T04:03:28.357Z,3.90
2023-05-09T04:05:56.515Z,4.05
2023-05-09T04:08:23.147Z,3.92
2023-05-09T04:10:50.632Z,3.85
2023-05-09T04:13:17.227Z,4.55
2023-05-09T04:15:43.940Z,4.32
2023-05-09T04:18:10.619Z,3.45
2023-05-09T04:20:37.170Z,7.47
2023-05-09T04:23:05.278Z,8.60
2023-05-09T04:25:31.996Z,10.50
2023-05-09T04:27:58.564Z,7.88
2023-05-09T04:30:27.100Z,4.18
2023-05-09T04:32:55.366Z,5.60
2023-05-09T04:35:22.741Z,4.40
2023-05-09T04:37:49.592Z,3.92
2023-05-09T04:40:17.639Z,4.20
2023-05-09T04:42:44.250Z,9.43
2023-05-09T04:45:11.800Z,10.10
2023-05-09T04:47:38.666Z,10.48
2023-05-09T04:50:06.321Z,4.68
2023-05-09T04:52:32.953Z,8.45
2023-05-09T04:54:59.521Z,8.23
2023-05-09T04:57:27.634Z,9.52
2023-05-09T04:59:54.232Z,10.52
2023-05-09T05:02:21.373Z,11.57
2023-05-09T05:04:48.142Z,10.93
2023-05-09T05:07:14.805Z,10.07
2023-05-09T05:09:41.382Z,10.15
2023-05-09T05:12:09.822Z,10.93
2023-05-09T05:14:37.969Z,10.15
2023-05-09T05:17:04.574Z,10.77
2023-05-09T05:19:31.790Z,9.02
2023-05-09T05:21:58.369Z,4.68
2023-05-09T05:24:25.058Z,5.82
2023-05-09T05:26:51.647Z,5.88
2023-05-09T05:29:18.216Z,7.72
2023-05-09T05:31:46.215Z,8.15
2023-05-09T05:34:13.229Z,7.80
2023-05-09T05:36:39.819Z,7.80
2023-05-09T05:39:06.351Z,8.15
2023-05-09T05:41:32.985Z,7.40
2023-05-09T05:43:59.562Z,7.32
2023-05-09T05:46:26.238Z,4.30
2023-05-09T05:48:54.144Z,6.43
2023-05-09T05:51:21.230Z,6.78
2023-05-09T05:53:47.857Z,8.10
2023-05-09T05:56:14.412Z,6.38
2023-05-09T05:58:40.958Z,7.88
2023-05-09T06:01:07.632Z,9.15
2023-05-09T06:03:34.322Z,8.90
2023-05-09T06:06:02.411Z,4.00
2023-05-09T06:08:29.009Z,3.88
2023-05-09T06:10:55.662Z,6.47
2023-05-09T06:13:22.411Z,7.93
2023-05-09T06:15:49.254Z,8.52
2023-05-09T06:18:15.890Z,10.20
2023-05-09T06:20:42.478Z,3.97
2023-05-09T06:23:10.452Z,3.45
2023-05-09T06:25:37.417Z,7.53
2023-05-09T06:28:04.252Z,7.82
2023-05-09T06:30:30.845Z,7.95
2023-05-09T06:32:58.253Z,8.65
2023-05-09T06:35:25.130Z,7.75
2023-05-09T06:37:51.771Z,3.97
2023-05-09T06:40:20.078Z,3.67
2023-05-09T06:42:46.837Z,7.63
2023-05-09T06:45:13.798Z,9.35
2023-05-09T06:47:40.714Z,5.43
2023-05-09T06:50:08.672Z,6.72
2023-05-09T06:52:35.765Z,3.58
2023-05-09T06:55:02.462Z,5.45
2023-05-09T06:57:30.718Z,3.38
2023-05-09T06:59:57.342Z,3.40
2023-05-09T07:02:24.047Z,3.50
2023-05-09T07:04:50.805Z,6.28
2023-05-09T07:07:17.524Z,7.28
2023-05-09T07:09:44.139Z,5.20
2023-05-09T07:12:10.733Z,7.13
2023-05-09T07:14:38.735Z,7.63
2023-05-09T07:17:21.133Z,8.80
2023-05-09T07:19:49.928Z,7.70
2023-05-09T07:22:16.775Z,6.28
2023-05-09T07:24:44.549Z,9.13
2023-05-09T07:27:11.242Z,6.20
2023-05-09T07:29:39.210Z,8.15
2023-05-09T07:32:06.329Z,7.00
2023-05-09T07:34:33.047Z,7.75
2023-05-09T07:36:59.671Z,7.75
2023-05-09T07:39:26.361Z,8.13
2023-05-09T07:41:52.990Z,6.97
2023-05-09T07:44:19.568Z,6.85
2023-05-09T07:46:47.555Z,7.90
2023-05-09T07:49:14.135Z,6.75
2023-05-09T07:51:41.397Z,8.20
2023-05-09T07:54:10.040Z,8.30
2023-05-09T07:56:37.003Z,6.75
2023-05-09T07:59:03.670Z,6.78
2023-05-09T08:01:30.654Z,6.63
2023-05-09T08:03:58.877Z,7.47
2023-05-09T08:06:26.323Z,5.88
2023-05-09T08:08:52.950Z,5.53
2023-05-09T08:11:19.582Z,4.30
2023-05-09T08:13:46.929Z,5.30
2023-05-09T08:16:13.787Z,5.22
2023-05-09T08:18:40.502Z,5.60
2023-05-09T08:21:08.485Z,3.85
2023-05-09T08:23:35.257Z,4.60
2023-05-09T08:26:01.895Z,5.10
2023-05-09T08:28:28.803Z,3.22
2023-05-09T08:30:56.827Z,3.08
2023-05-09T08:33:23.666Z,2.63
2023-05-09T08:35:54.025Z,1.92
2023-05-09T08:38:22.278Z,2.75
2023-05-09T08:40:48.887Z,2.38
2023-05-09T08:43:19.201Z,2.08
2023-05-09T08:45:48.302Z,2.70
2023-05-09T08:48:16.395Z,2.53
2023-05-09T08:50:43.903Z,2.47
2023-05-09T08:53:11.241Z,3.38
2023-05-09T08:55:39.534Z,3.88
2023-05-09T08:58:06.307Z,3.00
2023-05-09T09:00:33.789Z,3.03
2023-05-09T09:03:02.200Z,3.40
2023-05-09T09:05:41.173Z,2.90
2023-05-09T09:08:09.995Z,2.63
2023-05-09T09:10:42.757Z,1.90
2023-05-09T09:13:12.520Z,1.60
2023-05-09T09:15:41.589Z,1.60
2023-05-09T09:18:10.001Z,1.50
2023-05-09T09:20:42.602Z,2.17
2023-05-09T09:23:12.290Z,2.42
2023-05-09T09:25:39.110Z,1.45
2023-05-09T09:28:07.196Z,2.15
2023-05-09T09:30:33.819Z,1.90
2023-05-09T09:33:00.656Z,1.73
2023-05-09T09:35:27.515Z,2.10
2023-05-09T09:38:00.036Z,2.10
2023-05-09T09:40:26.961Z,1.73
2023-05-09T09:42:53.625Z,2.75
2023-05-09T09:45:21.586Z,1.63
2023-05-09T09:47:50.227Z,1.50
2023-05-09T09:50:18.398Z,1.38
2023-05-09T09:52:50.035Z,1.40
2023-05-09T09:55:16.969Z,1.63
2023-05-09T09:57:46.511Z,1.60
2023-05-09T10:00:15.980Z,1.30
2023-05-09T10:02:52.352Z,1.38
2023-05-09T10:05:20.712Z,1.10
2023-05-09T10:07:52.887Z,1.30
2023-05-09T10:10:19.870Z,1.55
2023-05-09T10:12:47.449Z,1.20
2023-05-09T10:15:18.786Z,1.42
2023-05-09T10:17:45.646Z,1.30
2023-05-09T10:20:14.257Z,1.50
2023-05-09T10:22:41.949Z,1.25
2023-05-09T10:25:14.134Z,1.00
2023-05-09T10:27:44.558Z,1.00
2023-05-09T10:30:15.453Z,1.48
2023-05-09T10:32:46.130Z,1.10
2023-05-09T10:35:17.139Z,1.00
2023-05-09T10:37:45.384Z,0.95
2023-05-09T10:40:15.170Z,1.25
2023-05-09T10:42:42.919Z,1.13
2023-05-09T10:45:11.233Z,1.08
2023-05-09T10:47:39.747Z,1.30
2023-05-09T10:50:08.003Z,1.07
2023-05-09T10:53:11.475Z,1.20
2023-05-09T10:55:47.719Z,1.42
2023-05-09T10:58:22.134Z,1.42
2023-05-09T11:00:49.675Z,1.08
2023-05-09T11:03:19.247Z,1.60
2023-05-09T11:05:47.472Z,1.08
2023-05-09T11:08:25.173Z,1.65
2023-05-09T11:10:52.796Z,1.40
2023-05-09T11:13:21.499Z,1.80
2023-05-09T11:16:09.416Z,1.30
2023-05-09T11:18:50.578Z,1.33
2023-05-09T11:21:17.608Z,1.55
2023-05-09T11:23:45.800Z,1.50
2023-05-09T11:26:15.956Z,1.40
2023-05-09T11:28:52.257Z,1.83
2023-05-09T11:31:19.385Z,1.52
2023-05-09T11:33:54.915Z,1.50
2023-05-09T11:36:29.777Z,1.30
2023-05-09T11:39:06.386Z,1.00
2023-05-09T11:41:39.786Z,1.38
2023-05-09T11:44:13.631Z,1.50
2023-05-09T11:46:40.248Z,1.35
2023-05-09T11:49:07.793Z,1.50
2023-05-09T11:51:37.412Z,1.27
2023-05-09T11:54:08.851Z,1.40
2023-05-09T11:56:36.556Z,1.40
2023-05-09T11:59:03.537Z,1.25
2023-05-09T12:01:30.617Z,1.30
2023-05-09T12:03:58.052Z,1.40
2023-05-09T12:06:28.013Z,1.90
2023-05-09T12:08:55.654Z,1.50
2023-05-09T12:11:24.796Z,1.20
2023-05-09T12:13:52.701Z,1.40
2023-05-09T12:16:20.555Z,1.73
2023-05-09T12:18:47.844Z,1.60
2023-05-09T12:21:14.567Z,1.40
2023-05-09T12:23:41.155Z,1.38
2023-05-09T12:26:08.221Z,1.45
2023-05-09T12:28:36.607Z,1.75
2023-05-09T12:31:04.176Z,1.40
2023-05-09T12:33:31.753Z,1.48
2023-05-09T12:36:03.338Z,1.85
2023-05-09T12:38:30.374Z,1.55
2023-05-09T12:41:03.482Z,1.10
2023-05-09T12:43:31.796Z,1.50
2023-05-09T12:46:01.659Z,1.20
2023-05-09T12:48:29.550Z,1.50
2023-05-09T12:50:56.130Z,1.67
2023-05-09T12:53:26.304Z,1.42
2023-05-09T12:56:00.713Z,1.35
2023-05-09T12:58:29.996Z,1.60
2023-05-09T13:00:56.583Z,1.63
2023-05-09T13:03:26.530Z,1.45
2023-05-09T13:05:56.104Z,1.98
2023-05-09T13:08:23.212Z,1.45
2023-05-09T13:10:51.127Z,1.70
2023-05-09T13:13:21.770Z,1.70
2023-05-09T13:15:48.531Z,1.63
2023-05-09T13:18:15.292Z,1.88
2023-05-09T13:20:43.294Z,1.58
2023-05-09T13:23:09.983Z,1.30
2023-05-09T13:25:36.674Z,1.40
2023-05-09T13:28:04.716Z,1.67
2023-05-09T13:30:32.622Z,1.73
2023-05-09T13:33:06.298Z,1.70
2023-05-09T13:35:39.733Z,1.60
2023-05-09T13:38:07.709Z,1.35
2023-05-09T13:40:34.320Z,1.30
2023-05-09T13:43:00.964Z,1.60
2023-05-09T13:45:27.708Z,1.45
2023-05-09T13:47:54.381Z,1.85
2023-05-09T13:50:21.158Z,1.98
2023-05-09T13:52:47.833Z,1.60
2023-05-09T13:55:15.857Z,1.60
2023-05-09T13:57:43.072Z,1.77
2023-05-09T14:00:11.083Z,2.10
2023-05-09T14:02:37.885Z,2.08
2023-05-09T14:05:05.166Z,1.42
2023-05-09T14:07:31.790Z,1.42
2023-05-09T14:10:10.985Z,1.77
2023-05-09T14:12:40.614Z,1.70
2023-05-09T14:15:08.602Z,1.40
2023-05-09T14:17:35.236Z,1.70
2023-05-09T14:20:01.930Z,1.10
2023-05-09T14:22:28.527Z,1.40
2023-05-09T14:24:57.381Z,1.83
2023-05-09T14:27:24.994Z,1.58
2023-05-09T14:29:52.955Z,1.40
2023-05-09T14:32:19.513Z,1.40
2023-05-09T14:34:46.194Z,1.50
2023-05-09T14:37:15.505Z,1.42
2023-05-09T14:39:43.402Z,1.20
2023-05-09T14:42:11.520Z,1.55
2023-05-09T14:44:38.678Z,1.60
2023-05-09T14:47:07.575Z,1.45
2023-05-09T14:49:34.250Z,1.40
2023-05-09T14:52:00.817Z,1.65
2023-05-09T14:54:27.390Z,1.50
2023-05-09T14:56:54.063Z,1.42
2023-05-09T14:59:21.062Z,2.33
2023-05-09T15:01:47.649Z,1.92
2023-05-09T15:04:15.700Z,1.73
2023-05-09T15:06:43.110Z,2.47
2023-05-09T15:09:10.188Z,3.22
2023-05-09T15:11:47.609Z,2.60
2023-05-09T15:14:15.265Z,3.78
2023-05-09T15:16:42.032Z,3.10
2023-05-09T15:19:08.709Z,3.10
2023-05-09T15:21:36.632Z,3.80
2023-05-09T15:24:04.887Z,4.18
2023-05-09T15:26:32.107Z,2.88
2023-05-09T15:28:58.809Z,3.78
2023-05-09T15:31:25.840Z,2.80
2023-05-09T15:33:52.562Z,3.10
2023-05-09T15:36:19.126Z,3.33
2023-05-09T15:38:49.506Z,2.97
2023-05-09T15:41:17.035Z,3.15
2023-05-09T15:43:43.696Z,3.30
2023-05-09T15:46:10.470Z,2.65
2023-05-09T15:48:37.210Z,2.70
2023-05-09T15:51:04.217Z,3.30
2023-05-09T15:53:31.115Z,2.60
2023-05-09T15:55:59.437Z,3.75
2023-05-09T15:58:26.128Z,2.80
2023-05-09T16:00:53.037Z,2.83
2023-05-09T16:03:19.838Z,2.72
2023-05-09T16:05:46.578Z,2.92
2023-05-09T16:08:13.182Z,3.08
2023-05-09T16:10:40.776Z,3.00
2023-05-09T16:13:09.352Z,3.50
2023-05-09T16:15:36.063Z,4.00
2023-05-09T16:18:02.906Z,4.78
2023-05-09T16:20:29.507Z,4.00
2023-05-09T16:22:56.142Z,3.45
2023-05-09T16:25:22.828Z,3.97
2023-05-09T16:27:49.522Z,4.70
2023-05-09T16:30:17.849Z,4.95
2023-05-09T16:32:44.763Z,3.90
2023-05-09T16:35:11.435Z,3.63
2023-05-09T16:37:38.081Z,4.15
2023-05-09T16:40:06.035Z,3.40
2023-05-09T16:42:32.955Z,3.33
2023-05-09T16:44:59.545Z,3.05
2023-05-09T16:47:27.521Z,3.38
2023-05-09T16:49:54.139Z,3.45
2023-05-09T16:52:20.750Z,5.13
2023-05-09T16:54:49.134Z,5.28
2023-05-09T16:57:15.765Z,5.05
2023-05-09T16:59:42.368Z,4.97
2023-05-09T17:02:08.961Z,4.20
2023-05-09T17:04:37.898Z,4.32
2023-05-09T17:07:04.766Z,4.07
2023-05-09T17:09:31.897Z,2.88
2023-05-09T17:11:58.950Z,2.55
2023-05-09T17:14:25.583Z,2.88
2023-05-09T17:16:52.590Z,3.45
2023-05-09T17:19:23.113Z,3.40
2023-05-09T17:21:51.066Z,3.63
2023-05-09T17:24:17.831Z,3.28
2023-05-09T17:26:44.392Z,3.72
2023-05-09T17:29:10.981Z,3.50
2023-05-09T17:31:37.706Z,3.65
2023-05-09T17:34:05.441Z,3.47
2023-05-09T17:36:33.499Z,3.60
2023-05-09T17:39:01.472Z,3.17
2023-05-09T17:41:28.050Z,3.45
2023-05-09T17:43:57.315Z,3.50
2023-05-09T17:48:50.791Z,3.70
2023-05-09T17:51:17.592Z,3.30
2023-05-09T17:53:44.202Z,4.05
2023-05-09T17:56:12.139Z,3.28
2023-05-09T17:58:38.699Z,3.42
2023-05-09T18:01:05.722Z,4.00
2023-05-09T18:03:32.876Z,3.58
2023-05-09T18:06:02.703Z,3.17
2023-05-09T18:08:29.812Z,3.50
2023-05-09T18:10:56.671Z,3.28
2023-05-09T18:13:24.693Z,3.65
2023-05-09T18:15:51.514Z,3.50
2023-05-09T18:18:18.273Z,3.58
2023-05-09T18:20:47.043Z,3.38
2023-05-09T18:23:14.451Z,3.22
2023-05-09T18:25:41.876Z,3.15
2023-05-09T18:28:08.435Z,3.33
2023-05-09T18:30:36.334Z,3.90
2023-05-09T18:33:03.117Z,3.55
2023-05-09T18:35:29.881Z,3.03
2023-05-09T18:37:56.493Z,3.38
2023-05-09T18:40:23.123Z,3.40
2023-05-09T18:42:49.746Z,3.50
2023-05-09T18:45:16.346Z,3.30
2023-05-09T18:47:44.312Z,3.25
2023-05-09T18:50:13.507Z,3.20
2023-05-09T18:52:40.561Z,3.45
2023-05-09T18:55:07.892Z,3.30
2023-05-09T18:57:34.739Z,3.20
2023-05-09T19:00:01.524Z,2.90
2023-05-09T19:02:30.042Z,2.95
2023-05-09T19:04:58.246Z,3.40
2023-05-09T19:07:24.916Z,2.72
2023-05-09T19:09:51.798Z,3.40
2023-05-09T19:12:18.797Z,3.17
2023-05-09T19:14:45.398Z,3.45
2023-05-09T19:17:12.121Z,3.22
2023-05-09T19:19:38.945Z,2.53
2023-05-09T19:22:07.021Z,3.10
2023-05-09T19:24:33.676Z,3.15
2023-05-09T19:27:00.417Z,2.92
2023-05-09T19:29:27.033Z,3.33
2023-05-09T19:31:53.623Z,2.30
2023-05-09T19:34:20.283Z,2.47
2023-05-09T19:36:46.899Z,3.15
2023-05-09T19:39:14.887Z,3.22
2023-05-09T19:41:41.647Z,3.20
2023-05-09T19:44:08.369Z,3.05
2023-05-09T19:46:35.397Z,3.00
2023-05-09T19:49:02.113Z,3.25
2023-05-09T19:51:29.592Z,3.05
2023-05-09T19:53:56.256Z,2.95
2023-05-09T19:56:24.335Z,3.03
2023-05-09T19:58:50.954Z,3.25
2023-05-09T20:01:18.914Z,2.58
2023-05-09T20:03:46.953Z,3.60
2023-05-09T20:06:13.776Z,3.03
2023-05-09T20:08:40.374Z,3.20
2023-05-09T20:11:07.769Z,3.58
2023-05-09T20:13:35.806Z,3.15
2023-05-09T20:16:03.432Z,3.17
2023-05-09T20:18:33.280Z,3.05
2023-05-09T20:21:00.122Z,3.42
2023-05-09T20:23:27.067Z,3.08
2023-05-09T20:25:53.848Z,2.33
2023-05-09T20:28:22.338Z,1.90
2023-05-09T20:30:50.293Z,0.60
2023-05-09T20:33:17.020Z,0.90
2023-05-09T20:35:43.875Z,0.90
2023-05-09T20:38:10.685Z,0.90
2023-05-09T20:40:37.439Z,0.60
2023-05-09T20:43:04.100Z,0.60
2023-05-09T20:45:30.817Z,0.80
2023-05-09T20:47:59.338Z,0.55
2023-05-09T20:50:26.045Z,0.60
2023-05-09T20:52:52.634Z,0.40
2023-05-09T20:55:19.567Z,0.30
2023-05-09T20:57:46.121Z,0.50
2023-05-09T21:00:13.631Z,0.50
2023-05-09T21:02:40.511Z,0.38
2023-05-09T21:05:09.122Z,0.20
2023-05-09T21:07:35.751Z,0.27
2023-05-09T21:10:02.309Z,0.52
2023-05-09T21:12:30.499Z,0.40
2023-05-09T21:14:57.752Z,0.47
2023-05-09T21:17:24.452Z,0.50
2023-05-09T21:19:51.827Z,0.50
2023-05-09T21:22:19.830Z,0.60
2023-05-09T21:24:46.490Z,0.50
2023-05-09T21:27:13.181Z,0.40
2023-05-09T21:29:39.798Z,0.43
2023-05-09T21:32:06.632Z,0.57
2023-05-09T21:34:33.300Z,0.68
2023-05-09T21:36:59.924Z,0.60
2023-05-09T21:39:27.835Z,0.68
2023-05-09T21:41:54.380Z,0.40
2023-05-09T21:44:20.979Z,0.50
2023-05-09T21:46:47.594Z,0.45
2023-05-09T21:49:16.677Z,0.63
2023-05-09T21:51:43.551Z,0.40
2023-05-09T21:54:10.901Z,0.30
2023-05-09T21:56:38.914Z,0.40
2023-05-09T21:59:05.499Z,0.60
2023-05-09T22:01:32.134Z,0.30
2023-05-09T22:03:58.898Z,0.43
2023-05-09T22:06:25.661Z,0.43
2023-05-09T22:08:52.282Z,0.40
2023-05-09T22:11:19.000Z,0.50
2023-05-09T22:13:46.988Z,0.50
2023-05-09T22:16:13.655Z,0.40
2023-05-09T22:18:40.308Z,0.50
2023-05-09T22:21:07.055Z,0.40
2023-05-09T22:23:33.777Z,0.60
2023-05-09T22:26:00.459Z,0.38
2023-05-09T22:28:27.060Z,1.02
2023-05-09T22:30:55.197Z,0.57
2023-05-09T22:33:21.885Z,0.73
2023-05-09T22:35:48.516Z,0.80
2023-05-09T22:38:15.245Z,1.00
2023-05-09T22:40:41.910Z,0.50
2023-05-09T22:43:10.470Z,0.50
2023-05-09T22:45:37.212Z,0.40
2023-05-09T22:48:06.282Z,0.40
2023-05-09T22:50:32.954Z,0.47
2023-05-09T22:53:00.530Z,0.50
2023-05-09T22:55:27.515Z,0.32
2023-05-09T22:57:54.219Z,0.50
2023-05-09T23:00:21.057Z,0.40
2023-05-09T23:02:47.930Z,0.40
2023-05-09T23:05:16.260Z,0.40
2023-05-09T23:07:42.858Z,0.17
2023-05-09T23:10:09.965Z,0.40
2023-05-09T23:12:36.977Z,0.50
2023-05-09T23:15:04.418Z,0.40
2023-05-09T23:17:31.029Z,0.40
2023-05-09T23:20:00.503Z,0.50
2023-05-09T23:24:54.921Z,0.50
2023-05-09T23:27:21.613Z,0.60
2023-05-09T23:29:48.669Z,0.50
2023-05-09T23:32:15.276Z,0.30
2023-05-09T23:34:41.875Z,0.52
2023-05-09T23:37:08.579Z,0.45
2023-05-09T23:39:36.530Z,0.40
2023-05-09T23:42:04.079Z,0.10
2023-05-09T23:44:31.076Z,0.40
2023-05-09T23:46:57.767Z,0.10
2023-05-09T23:49:24.361Z,0.20
2023-05-09T23:51:51.290Z,0.40
2023-05-09T23:54:17.887Z,0.30
2023-05-09T23:56:47.676Z,0.40
2023-05-09T23:59:14.261Z,0.50
